RJSM METAR and TAF | Updated Today

RJSM METAR

Misawa Air Base

Observation time: 19 min. ago

RJSM 080600Z 02012KT 9999 FEW020 BKN045 OVC070 08/01 Q1025

Need help? Read our tutorial on how to read METARs or read the parsed version below.

Misawa Air Base (RJSM) METAR

  • Weather conditions on Wed, 08 Dec 2021 06:00:00 +0000 (19 min. ago):
  • Present conditions: Dry
  • Clouds: A few at 610 meters; broken sky at 1372 meters; overcast sky at 2134 meters
  • Visibility: Greater than 10 km
  • Wind: 20 degrees at 12 knots
  • Temperature: 8 celsius
  • Dew point: 1 celsius
  • Pressure: 1025 millibars
  • Remarks: None


Useful to know...